createdAt,value
2018-09-15T00:01:43.071Z,16.18
2018-09-15T00:04:11.442Z,16.16
2018-09-15T00:06:39.826Z,16.15
2018-09-15T00:09:09.006Z,16.14
2018-09-15T00:11:37.398Z,16.09
2018-09-15T00:14:05.768Z,16.05
2018-09-15T00:16:34.181Z,16.02
2018-09-15T00:19:02.563Z,15.98
2018-09-15T00:21:30.967Z,15.94
2018-09-15T00:23:59.362Z,15.91
2018-09-15T00:26:27.777Z,15.89
2018-09-15T00:28:56.160Z,15.86
2018-09-15T00:31:24.531Z,15.85
2018-09-15T00:33:52.919Z,15.84
2018-09-15T00:36:21.310Z,15.83
2018-09-15T00:38:49.713Z,15.80
2018-09-15T00:41:18.090Z,15.79
2018-09-15T00:43:46.483Z,15.77
2018-09-15T00:46:14.849Z,15.75
2018-09-15T00:48:43.244Z,15.73
2018-09-15T00:51:11.626Z,15.72
2018-09-15T00:53:40.012Z,15.70
2018-09-15T00:56:08.379Z,15.70
2018-09-15T00:58:36.762Z,15.69
2018-09-15T01:01:05.123Z,15.68
2018-09-15T01:03:33.519Z,15.66
2018-09-15T01:06:01.881Z,15.65
2018-09-15T01:08:30.450Z,15.62
2018-09-15T01:10:58.805Z,15.60
2018-09-15T01:13:27.198Z,15.59
2018-09-15T01:15:55.557Z,15.58
2018-09-15T01:18:23.941Z,15.58
2018-09-15T01:20:52.298Z,15.56
2018-09-15T01:23:20.734Z,15.53
2018-09-15T01:25:49.106Z,15.52
2018-09-15T01:28:17.494Z,15.52
2018-09-15T01:30:45.853Z,15.50
2018-09-15T01:33:14.230Z,15.51
2018-09-15T01:35:42.599Z,15.52
2018-09-15T01:38:10.981Z,15.51
2018-09-15T01:40:39.334Z,15.50
2018-09-15T01:43:07.731Z,15.49
2018-09-15T01:45:36.137Z,15.48
2018-09-15T01:48:04.534Z,15.46
2018-09-15T01:50:32.908Z,15.43
2018-09-15T01:53:01.290Z,15.42
2018-09-15T01:55:29.655Z,15.39
2018-09-15T01:57:58.037Z,15.36
2018-09-15T02:00:26.401Z,15.33
2018-09-15T02:02:54.787Z,15.29
2018-09-15T02:05:23.150Z,15.24
2018-09-15T02:07:51.539Z,15.19
2018-09-15T02:10:19.898Z,15.15
2018-09-15T02:12:48.282Z,15.09
2018-09-15T02:15:16.642Z,15.04
2018-09-15T02:17:45.022Z,14.98
2018-09-15T02:20:13.374Z,14.94
2018-09-15T02:22:41.826Z,14.90
2018-09-15T02:25:10.193Z,14.86
2018-09-15T02:27:38.553Z,14.82
2018-09-15T02:30:06.946Z,14.79
2018-09-15T02:32:35.301Z,14.74
2018-09-15T02:35:03.686Z,14.70
2018-09-15T02:37:32.058Z,14.67
2018-09-15T02:40:00.442Z,14.63
2018-09-15T02:42:28.802Z,14.59
2018-09-15T02:44:57.192Z,14.55
2018-09-15T02:47:25.555Z,14.51
2018-09-15T02:49:53.987Z,14.46
2018-09-15T02:52:22.348Z,14.43
2018-09-15T02:54:50.770Z,14.40
2018-09-15T02:57:19.130Z,14.36
2018-09-15T02:59:47.506Z,14.32
2018-09-15T03:02:15.894Z,14.29
2018-09-15T03:04:44.282Z,14.26
2018-09-15T03:07:12.664Z,14.23
2018-09-15T03:09:41.058Z,14.20
2018-09-15T03:12:09.430Z,14.19
2018-09-15T03:14:37.815Z,14.16
2018-09-15T03:17:06.500Z,14.13
2018-09-15T03:19:34.902Z,14.11
2018-09-15T03:22:03.275Z,14.09
2018-09-15T03:24:31.681Z,14.07
2018-09-15T03:27:00.052Z,14.03
2018-09-15T03:29:28.445Z,14.01
2018-09-15T03:31:56.815Z,13.98
2018-09-15T03:34:25.216Z,13.95
2018-09-15T03:36:53.623Z,13.92
2018-09-15T03:39:22.005Z,13.91
2018-09-15T03:41:50.425Z,13.90
2018-09-15T03:44:18.781Z,13.88
2018-09-15T03:46:47.155Z,13.85
2018-09-15T03:49:15.550Z,13.81
2018-09-15T03:51:43.915Z,13.79
2018-09-15T03:54:17.398Z,13.76
2018-09-15T03:56:45.862Z,13.73
2018-09-15T03:59:14.577Z,13.71
2018-09-15T04:01:42.955Z,13.68
2018-09-15T04:04:11.362Z,13.66
2018-09-15T04:06:39.725Z,13.64
2018-09-15T04:09:10.138Z,13.62
2018-09-15T04:11:38.590Z,13.61
2018-09-15T04:14:07.301Z,13.58
2018-09-15T04:16:35.758Z,13.57
2018-09-15T04:19:04.147Z,13.56
2018-09-15T04:21:32.531Z,13.56
2018-09-15T04:24:00.946Z,13.57
2018-09-15T04:26:29.319Z,13.57
2018-09-15T04:28:57.749Z,13.59
2018-09-15T04:31:26.275Z,13.60
2018-09-15T04:33:54.654Z,13.58
2018-09-15T04:36:23.041Z,13.60
2018-09-15T04:38:51.409Z,13.60
2018-09-15T04:41:19.794Z,13.57
2018-09-15T04:43:48.338Z,13.56
2018-09-15T04:46:16.730Z,13.53
2018-09-15T04:48:45.098Z,13.53
2018-09-15T04:51:13.486Z,13.51
2018-09-15T04:53:41.850Z,13.48
2018-09-15T04:56:10.239Z,13.45
2018-09-15T04:58:38.608Z,13.42
2018-09-15T05:01:07.034Z,13.39
2018-09-15T05:03:35.410Z,13.39
2018-09-15T05:06:03.805Z,13.39
2018-09-15T05:08:32.347Z,13.37
2018-09-15T05:11:00.955Z,13.37
2018-09-15T05:13:29.370Z,13.36
2018-09-15T05:15:57.776Z,13.38
2018-09-15T05:18:26.142Z,13.37
2018-09-15T05:20:54.535Z,13.38
2018-09-15T05:23:23.882Z,13.39
2018-09-15T05:25:52.315Z,13.39
2018-09-15T05:28:20.682Z,13.40
2018-09-15T05:30:49.084Z,13.40
2018-09-15T05:33:17.490Z,13.42
2018-09-15T05:35:45.886Z,13.42
2018-09-15T05:38:14.291Z,13.45
2018-09-15T05:40:42.842Z,13.46
2018-09-15T05:43:11.298Z,13.49
2018-09-15T05:45:39.692Z,13.53
2018-09-15T05:48:08.062Z,13.54
2018-09-15T05:50:36.449Z,13.58
2018-09-15T05:53:04.810Z,13.64
2018-09-15T05:55:33.210Z,13.68
2018-09-15T05:58:01.581Z,13.73
2018-09-15T06:00:30.032Z,13.78
2018-09-15T06:02:58.369Z,13.85
2018-09-15T06:05:26.770Z,13.89
2018-09-15T06:07:55.150Z,13.94
2018-09-15T06:10:23.542Z,14.00
2018-09-15T06:12:51.910Z,14.05
2018-09-15T06:15:20.318Z,14.12
2018-09-15T06:17:48.686Z,14.18
2018-09-15T06:20:17.076Z,14.25
2018-09-15T06:22:45.465Z,14.30
2018-09-15T06:25:13.878Z,14.35
2018-09-15T06:27:42.258Z,14.42
2018-09-15T06:30:10.629Z,14.47
2018-09-15T06:32:39.023Z,14.53
2018-09-15T06:35:07.389Z,14.60
2018-09-15T06:37:35.788Z,14.67
2018-09-15T06:40:04.166Z,14.74
2018-09-15T06:42:32.553Z,14.81
2018-09-15T06:45:00.913Z,14.89
2018-09-15T06:47:29.302Z,14.97
2018-09-15T06:49:57.688Z,15.04
2018-09-15T06:52:26.074Z,15.14
2018-09-15T06:54:54.437Z,15.24
2018-09-15T06:57:22.827Z,15.33
2018-09-15T06:59:51.198Z,15.42
2018-09-15T07:02:19.591Z,15.52
2018-09-15T07:04:47.966Z,15.62
2018-09-15T07:07:16.390Z,15.74
2018-09-15T07:09:44.758Z,15.87
2018-09-15T07:12:13.149Z,15.99
2018-09-15T07:14:41.506Z,16.11
2018-09-15T07:17:09.898Z,16.23
2018-09-15T07:19:38.304Z,16.34
2018-09-15T07:22:06.749Z,16.42
2018-09-15T07:24:35.138Z,16.51
2018-09-15T07:27:03.519Z,16.57
2018-09-15T07:29:31.886Z,16.64
2018-09-15T07:32:00.311Z,16.70
2018-09-15T07:34:28.665Z,16.76
2018-09-15T07:36:57.048Z,16.83
2018-09-15T07:39:25.430Z,16.92
2018-09-15T07:41:53.850Z,16.99
2018-09-15T07:44:22.397Z,17.09
2018-09-15T07:46:50.786Z,17.19
2018-09-15T07:49:19.166Z,17.27
2018-09-15T07:51:47.631Z,17.34
2018-09-15T07:54:15.988Z,17.39
2018-09-15T07:56:44.386Z,17.44
2018-09-15T07:59:12.815Z,17.51
2018-09-15T08:01:41.198Z,17.56
2018-09-15T08:04:09.573Z,17.61
2018-09-15T08:06:37.961Z,17.67
2018-09-15T08:09:07.053Z,17.72
2018-09-15T08:11:35.728Z,17.77
2018-09-15T08:14:04.102Z,17.81
2018-09-15T08:16:32.502Z,17.85
2018-09-15T08:19:00.863Z,17.89
2018-09-15T08:21:29.245Z,17.94
2018-09-15T08:23:57.653Z,18.02
2018-09-15T08:26:26.052Z,18.11
2018-09-15T08:28:54.955Z,18.17
2018-09-15T08:31:23.313Z,18.23
2018-09-15T08:33:51.706Z,18.30
2018-09-15T08:36:20.071Z,18.34
2018-09-15T08:38:48.453Z,18.40
2018-09-15T08:41:16.864Z,18.47
2018-09-15T08:43:45.223Z,18.53
2018-09-15T08:46:13.582Z,18.60
2018-09-15T08:48:41.965Z,18.63
2018-09-15T08:51:10.329Z,18.67
2018-09-15T08:53:38.714Z,18.74
2018-09-15T08:56:07.150Z,18.82
2018-09-15T08:58:35.543Z,18.88
2018-09-15T09:01:03.911Z,18.98
2018-09-15T09:03:32.299Z,19.05
2018-09-15T09:06:00.670Z,19.11
2018-09-15T09:08:29.062Z,19.17
2018-09-15T09:10:57.426Z,19.26
2018-09-15T09:13:25.837Z,19.32
2018-09-15T09:15:54.210Z,19.40
2018-09-15T09:18:22.590Z,19.50
2018-09-15T09:20:51.142Z,19.56
2018-09-15T09:23:19.554Z,19.63
2018-09-15T09:25:47.918Z,19.72
2018-09-15T09:28:16.293Z,19.79
2018-09-15T09:30:46.045Z,19.88
2018-09-15T09:33:14.440Z,19.96
2018-09-15T09:35:42.809Z,20.05
2018-09-15T09:38:11.199Z,20.11
2018-09-15T09:40:39.569Z,20.17
2018-09-15T09:43:07.969Z,20.20
2018-09-15T09:45:36.327Z,20.25
2018-09-15T09:48:04.767Z,20.35
2018-09-15T09:50:33.105Z,20.43
2018-09-15T09:53:01.481Z,20.48
2018-09-15T09:55:29.846Z,20.55
2018-09-15T09:57:58.227Z,20.62
2018-09-15T10:00:31.923Z,20.67
2018-09-15T10:03:00.319Z,20.74
2018-09-15T10:05:28.681Z,20.75
2018-09-15T10:07:57.062Z,20.82
2018-09-15T10:10:25.421Z,20.91
2018-09-15T10:12:53.806Z,21.00
2018-09-15T10:15:22.189Z,21.07
2018-09-15T10:17:50.578Z,21.12
2018-09-15T10:20:18.941Z,21.15
2018-09-15T10:22:47.350Z,21.19
2018-09-15T10:25:15.770Z,21.21
2018-09-15T10:27:44.170Z,21.28
2018-09-15T10:30:12.619Z,21.32
2018-09-15T10:32:40.978Z,21.31
2018-09-15T10:37:36.778Z,21.38
2018-09-15T10:40:05.396Z,21.41
2018-09-15T10:42:33.938Z,21.36
2018-09-15T10:45:02.318Z,21.30
2018-09-15T10:47:30.682Z,21.25
2018-09-15T10:49:59.078Z,21.26
2018-09-15T10:52:27.464Z,21.25
2018-09-15T10:54:55.858Z,21.31
2018-09-15T10:57:24.223Z,21.29
2018-09-15T10:59:52.611Z,21.28
2018-09-15T11:02:20.987Z,21.25
2018-09-15T11:04:49.374Z,21.27
2018-09-15T11:07:17.733Z,21.28
2018-09-15T11:09:46.123Z,21.25
2018-09-15T11:12:16.287Z,21.22
2018-09-15T11:14:45.129Z,21.22
2018-09-15T11:17:15.067Z,21.17
2018-09-15T11:19:45.110Z,21.14
2018-09-15T11:22:13.495Z,21.18
2018-09-15T11:24:41.923Z,21.23
2018-09-15T11:27:10.302Z,21.31
2018-09-15T11:29:38.688Z,21.41
2018-09-15T11:32:07.078Z,21.49
2018-09-15T11:34:35.467Z,21.57
2018-09-15T11:37:03.830Z,21.68
2018-09-15T11:39:32.205Z,21.75
2018-09-15T11:42:00.566Z,21.79
2018-09-15T11:44:28.955Z,21.78
2018-09-15T11:46:57.325Z,21.70
2018-09-15T11:49:25.714Z,21.61
2018-09-15T11:51:54.080Z,21.48
2018-09-15T11:54:22.482Z,21.33
2018-09-15T11:56:50.862Z,21.23
2018-09-15T11:59:19.241Z,21.17
2018-09-15T12:01:47.607Z,21.14
2018-09-15T12:04:15.994Z,21.12
2018-09-15T12:06:44.361Z,21.16
2018-09-15T12:09:12.770Z,21.22
2018-09-15T12:11:41.139Z,21.25
2018-09-15T12:14:09.562Z,21.29
2018-09-15T12:16:38.054Z,21.30
2018-09-15T12:19:06.442Z,21.28
2018-09-15T12:21:34.825Z,21.28
2018-09-15T12:24:03.238Z,21.29
2018-09-15T12:26:31.642Z,21.29
2018-09-15T12:29:00.034Z,21.29
2018-09-15T12:31:28.397Z,21.28
2018-09-15T12:33:56.812Z,21.28
2018-09-15T12:36:25.198Z,21.37
2018-09-15T12:38:53.558Z,21.52
2018-09-15T12:41:21.944Z,21.67
2018-09-15T12:43:50.328Z,21.77
2018-09-15T12:46:18.709Z,21.83
2018-09-15T12:48:47.506Z,21.89
2018-09-15T12:51:15.894Z,21.93
2018-09-15T12:53:44.374Z,21.98
2018-09-15T12:56:12.759Z,22.04
2018-09-15T12:58:41.126Z,22.09
2018-09-15T13:01:09.510Z,22.12
2018-09-15T13:03:37.866Z,22.12
2018-09-15T13:06:06.304Z,22.10
2018-09-15T13:08:34.665Z,22.05
2018-09-15T13:11:03.069Z,21.97
2018-09-15T13:13:31.474Z,21.90
2018-09-15T13:15:59.866Z,21.87
2018-09-15T13:18:28.225Z,21.84
2018-09-15T13:20:56.649Z,21.82
2018-09-15T13:23:25.030Z,21.82
2018-09-15T13:25:53.416Z,21.76
2018-09-15T13:28:21.778Z,21.69
2018-09-15T13:30:50.181Z,21.60
2018-09-15T13:33:18.549Z,21.51
2018-09-15T13:35:46.958Z,21.40
2018-09-15T13:38:15.321Z,21.30
2018-09-15T13:40:43.727Z,21.21
2018-09-15T13:43:12.088Z,21.18
2018-09-15T13:45:40.533Z,21.13
2018-09-15T13:48:08.898Z,21.10
2018-09-15T13:50:37.286Z,21.07
2018-09-15T13:53:05.822Z,21.02
2018-09-15T13:55:34.210Z,20.97
2018-09-15T13:58:02.577Z,20.89
2018-09-15T14:00:30.973Z,20.81
2018-09-15T14:02:59.342Z,20.73
2018-09-15T14:05:27.742Z,20.67
2018-09-15T14:07:56.109Z,20.63
2018-09-15T14:10:24.490Z,20.63
2018-09-15T14:12:52.857Z,20.63
2018-09-15T14:15:21.241Z,20.61
2018-09-15T14:17:49.605Z,20.58
2018-09-15T14:20:18.002Z,20.51
2018-09-15T14:22:46.407Z,20.34
2018-09-15T14:25:14.810Z,20.16
2018-09-15T14:27:43.246Z,19.96
2018-09-15T14:30:11.605Z,19.76
2018-09-15T14:32:39.986Z,19.54
2018-09-15T14:35:08.342Z,19.31
2018-09-15T14:37:36.723Z,19.08
2018-09-15T14:40:05.082Z,18.87
2018-09-15T14:42:34.039Z,18.67
2018-09-15T14:45:02.394Z,18.49
2018-09-15T14:47:30.774Z,18.27
2018-09-15T14:49:59.146Z,18.07
2018-09-15T14:52:27.553Z,17.92
2018-09-15T14:54:55.917Z,17.78
2018-09-15T14:57:24.297Z,17.68
2018-09-15T14:59:52.654Z,17.59
2018-09-15T15:02:21.038Z,17.51
2018-09-15T15:04:49.407Z,17.43
2018-09-15T15:07:17.793Z,17.39
2018-09-15T15:09:46.322Z,17.35
2018-09-15T15:12:14.732Z,17.32
2018-09-15T15:14:43.100Z,17.29
2018-09-15T15:17:11.486Z,17.26
2018-09-15T15:19:39.923Z,17.24
2018-09-15T15:22:08.267Z,17.21
2018-09-15T15:24:36.687Z,17.16
2018-09-15T15:27:05.111Z,17.11
2018-09-15T15:29:33.490Z,17.04
2018-09-15T15:32:01.884Z,17.01
2018-09-15T15:34:30.266Z,16.99
2018-09-15T15:36:58.654Z,16.97
2018-09-15T15:39:27.026Z,16.96
2018-09-15T15:41:55.485Z,16.93
2018-09-15T15:44:23.870Z,16.91
2018-09-15T15:46:52.253Z,16.89
2018-09-15T15:49:20.619Z,16.88
2018-09-15T15:51:49.010Z,16.87
2018-09-15T15:54:17.383Z,16.86
2018-09-15T15:56:45.773Z,16.86
2018-09-15T15:59:14.218Z,16.86
2018-09-15T16:01:42.552Z,16.84
2018-09-15T16:04:10.941Z,16.84
2018-09-15T16:06:39.611Z,16.85
2018-09-15T16:09:08.730Z,16.84
2018-09-15T16:11:37.954Z,16.86
2018-09-15T16:14:06.386Z,16.87
2018-09-15T16:16:34.885Z,16.90
2018-09-15T16:19:03.278Z,16.90
2018-09-15T16:21:31.690Z,16.89
2018-09-15T16:24:00.091Z,16.89
2018-09-15T16:26:28.490Z,16.89
2018-09-15T16:28:56.863Z,16.89
2018-09-15T16:31:25.219Z,16.90
2018-09-15T16:33:53.598Z,16.89
2018-09-15T16:36:21.950Z,16.90
2018-09-15T16:38:50.338Z,16.90
2018-09-15T16:41:18.698Z,16.88
2018-09-15T16:43:47.083Z,16.87
2018-09-15T16:46:15.710Z,16.85
2018-09-15T16:48:44.150Z,16.83
2018-09-15T16:51:12.509Z,16.82
2018-09-15T16:53:41.465Z,16.80
2018-09-15T16:56:09.818Z,16.79
2018-09-15T16:58:38.218Z,16.74
2018-09-15T17:01:06.729Z,16.70
2018-09-15T17:03:35.118Z,16.67
2018-09-15T17:06:03.564Z,16.65
2018-09-15T17:08:31.967Z,16.62
2018-09-15T17:11:00.487Z,16.60
2018-09-15T17:13:28.875Z,16.59
2018-09-15T17:15:57.302Z,16.56
2018-09-15T17:18:25.651Z,16.53
2018-09-15T17:20:54.001Z,16.52
2018-09-15T17:23:22.421Z,16.51
2018-09-15T17:25:50.803Z,16.50
2018-09-15T17:28:19.190Z,16.49
2018-09-15T17:30:47.550Z,16.47
2018-09-15T17:33:15.930Z,16.46
2018-09-15T17:35:44.303Z,16.45
2018-09-15T17:38:12.946Z,16.42
2018-09-15T17:40:41.302Z,16.41
2018-09-15T17:43:09.725Z,16.41
2018-09-15T17:45:38.174Z,16.40
2018-09-15T17:48:06.766Z,16.39
2018-09-15T17:50:35.213Z,16.38
2018-09-15T17:53:03.606Z,16.38
2018-09-15T17:55:32.090Z,16.38
2018-09-15T17:58:00.469Z,16.37
2018-09-15T18:00:29.695Z,16.37
2018-09-15T18:02:58.093Z,16.36
2018-09-15T18:05:26.446Z,16.35
2018-09-15T18:07:54.831Z,16.33
2018-09-15T18:10:23.194Z,16.32
2018-09-15T18:12:51.578Z,16.30
2018-09-15T18:15:19.938Z,16.29
2018-09-15T18:17:48.326Z,16.28
2018-09-15T18:20:16.686Z,16.27
2018-09-15T18:22:45.069Z,16.24
2018-09-15T18:25:13.467Z,16.19
2018-09-15T18:27:41.830Z,16.17
2018-09-15T18:30:10.234Z,16.14
2018-09-15T18:32:38.593Z,16.12
2018-09-15T18:35:06.974Z,16.09
2018-09-15T18:37:35.341Z,16.06
2018-09-15T18:40:03.722Z,16.03
2018-09-15T18:42:32.086Z,15.99
2018-09-15T18:45:00.476Z,15.98
2018-09-15T18:47:28.843Z,15.95
2018-09-15T18:49:57.239Z,15.93
2018-09-15T18:52:25.599Z,15.92
2018-09-15T18:54:54.129Z,15.90
2018-09-15T18:57:22.583Z,15.89
2018-09-15T18:59:50.980Z,15.87
2018-09-15T19:02:19.337Z,15.87
2018-09-15T19:04:47.731Z,15.84
2018-09-15T19:07:16.087Z,15.82
2018-09-15T19:09:44.477Z,15.78
2018-09-15T19:12:12.833Z,15.75
2018-09-15T19:14:41.275Z,15.73
2018-09-15T19:17:09.607Z,15.70
2018-09-15T19:19:37.997Z,15.66
2018-09-15T19:22:06.514Z,15.63
2018-09-15T19:24:35.106Z,15.60
2018-09-15T19:27:03.503Z,15.57
2018-09-15T19:29:31.898Z,15.53
2018-09-15T19:32:00.280Z,15.48
2018-09-15T19:34:28.668Z,15.42
2018-09-15T19:36:57.051Z,15.38
2018-09-15T19:39:25.451Z,15.33
2018-09-15T19:41:53.805Z,15.27
2018-09-15T19:44:22.203Z,15.23
2018-09-15T19:46:50.576Z,15.18
2018-09-15T19:49:18.974Z,15.12
2018-09-15T19:51:47.336Z,15.08
2018-09-15T19:54:15.718Z,15.02
2018-09-15T19:56:44.082Z,14.97
2018-09-15T19:59:12.528Z,14.92
2018-09-15T20:01:40.974Z,14.86
2018-09-15T20:04:09.374Z,14.82
2018-09-15T20:06:37.796Z,14.78
2018-09-15T20:09:08.239Z,14.73
2018-09-15T20:11:36.681Z,14.69
2018-09-15T20:14:05.068Z,14.66
2018-09-15T20:16:32.384Z,14.62
2018-09-15T20:18:59.743Z,14.59
2018-09-15T20:21:27.186Z,14.57
2018-09-15T20:23:55.671Z,14.55
2018-09-15T20:26:24.070Z,14.54
2018-09-15T20:28:52.626Z,14.55
2018-09-15T20:31:21.373Z,14.57
2018-09-15T20:33:49.730Z,14.60
2018-09-15T20:36:18.119Z,14.63
2018-09-15T20:38:46.498Z,14.67
2018-09-15T20:41:14.891Z,14.72
2018-09-15T20:43:43.271Z,14.73
2018-09-15T20:46:11.672Z,14.74
2018-09-15T20:48:40.035Z,14.76
2018-09-15T20:51:08.550Z,14.77
2018-09-15T20:53:36.911Z,14.77
2018-09-15T20:56:05.304Z,14.75
2018-09-15T20:58:33.692Z,14.73
2018-09-15T21:01:02.078Z,14.68
2018-09-15T21:03:32.213Z,14.62
2018-09-15T21:06:00.929Z,14.61
2018-09-15T21:08:29.462Z,14.59
2018-09-15T21:10:57.858Z,14.60
2018-09-15T21:13:26.219Z,14.61
2018-09-15T21:15:54.662Z,14.64
2018-09-15T21:18:23.030Z,14.63
2018-09-15T21:20:51.411Z,14.65
2018-09-15T21:23:19.802Z,14.67
2018-09-15T21:25:48.217Z,14.68
2018-09-15T21:28:16.569Z,14.70
2018-09-15T21:30:44.970Z,14.73
2018-09-15T21:33:13.476Z,14.75
2018-09-15T21:35:41.871Z,14.78
2018-09-15T21:38:10.229Z,14.81
2018-09-15T21:40:38.610Z,14.82
2018-09-15T21:43:06.986Z,14.84
2018-09-15T21:45:35.363Z,14.86
2018-09-15T21:48:03.841Z,14.86
2018-09-15T21:50:32.222Z,14.87
2018-09-15T21:53:00.582Z,14.85
2018-09-15T21:55:28.958Z,14.82
2018-09-15T21:57:57.320Z,14.80
2018-09-15T22:00:25.705Z,14.77
2018-09-15T22:02:54.066Z,14.75
2018-09-15T22:05:22.449Z,14.72
2018-09-15T22:07:50.803Z,14.68
2018-09-15T22:10:19.182Z,14.66
2018-09-15T22:12:49.201Z,14.62
2018-09-15T22:15:25.471Z,14.58
2018-09-15T22:17:55.251Z,14.56
2018-09-15T22:20:23.663Z,14.51
2018-09-15T22:22:52.046Z,14.46
2018-09-15T22:25:20.430Z,14.44
2018-09-15T22:27:49.207Z,14.38
2018-09-15T22:30:17.566Z,14.36
2018-09-15T22:32:45.947Z,14.32
2018-09-15T22:35:14.315Z,14.29
2018-09-15T22:37:42.697Z,14.25
2018-09-15T22:40:11.694Z,14.23
2018-09-15T22:42:40.307Z,14.20
2018-09-15T22:45:08.745Z,14.17
2018-09-15T22:47:37.126Z,14.14
2018-09-15T22:50:05.822Z,14.10
2018-09-15T22:52:34.536Z,14.07
2018-09-15T22:55:03.404Z,14.04
2018-09-15T22:57:31.946Z,14.01
2018-09-15T23:00:00.363Z,13.98
2018-09-15T23:02:28.744Z,13.94
2018-09-15T23:04:57.098Z,13.90
2018-09-15T23:07:25.506Z,13.85
2018-09-15T23:09:53.876Z,13.81
2018-09-15T23:12:22.262Z,13.76
2018-09-15T23:14:50.613Z,13.72
2018-09-15T23:17:18.993Z,13.66
2018-09-15T23:19:47.355Z,13.61
2018-09-15T23:22:15.742Z,13.56
2018-09-15T23:24:44.126Z,13.52
2018-09-15T23:27:12.497Z,13.48
2018-09-15T23:29:40.859Z,13.43
2018-09-15T23:32:09.237Z,13.38
2018-09-15T23:34:37.611Z,13.35
2018-09-15T23:37:06.181Z,13.31
2018-09-15T23:39:34.543Z,13.29
2018-09-15T23:42:02.914Z,13.28
2018-09-15T23:44:31.276Z,13.28
2018-09-15T23:46:59.653Z,13.27
2018-09-15T23:49:28.010Z,13.28
2018-09-15T23:51:56.389Z,13.29
2018-09-15T23:54:24.750Z,13.29
2018-09-15T23:56:53.137Z,13.29
2018-09-15T23:59:21.494Z,13.30
